sensor_id;sensor_type;location;lat;lon;timestamp;pressure;altitude;pressure_sealevel;temperature;humidity
60820;BME280;46641;48.904;9.126;2022-09-09T00:02:57;98190.19;;;23.52;46.31
60820;BME280;46641;48.904;9.126;2022-09-09T00:07:54;98189.50;;;23.45;46.48
60820;BME280;46641;48.904;9.126;2022-09-09T00:13:25;98192.19;;;23.45;45.95
60820;BME280;46641;48.904;9.126;2022-09-09T00:18:26;98191.13;;;23.46;46.30
60820;BME280;46641;48.904;9.126;2022-09-09T00:23:27;98189.50;;;23.45;46.28
60820;BME280;46641;48.904;9.126;2022-09-09T00:28:20;98177.69;;;23.41;46.37
60820;BME280;46641;48.904;9.126;2022-09-09T00:33:13;98181.38;;;23.40;46.56
60820;BME280;46641;48.904;9.126;2022-09-09T00:38:12;98169.56;;;23.36;46.54
60820;BME280;46641;48.904;9.126;2022-09-09T00:48:02;98180.72;;;23.32;46.60
60820;BME280;46641;48.904;9.126;2022-09-09T00:53:19;98178.88;;;23.33;46.10
60820;BME280;46641;48.904;9.126;2022-09-09T00:58:12;98176.78;;;23.35;46.26
60820;BME280;46641;48.904;9.126;2022-09-09T01:13:31;98170.97;;;23.38;46.00
60820;BME280;46641;48.904;9.126;2022-09-09T01:18:27;98171.75;;;23.39;46.04
60820;BME280;46641;48.904;9.126;2022-09-09T01:23:35;98169.56;;;23.36;45.99
60820;BME280;46641;48.904;9.126;2022-09-09T01:28:29;98178.06;;;23.32;46.27
60820;BME280;46641;48.904;9.126;2022-09-09T01:33:20;98185.59;;;23.36;46.29
60820;BME280;46641;48.904;9.126;2022-09-09T01:38:10;98192.22;;;23.33;46.36
60820;BME280;46641;48.904;9.126;2022-09-09T01:43:01;98194.00;;;23.27;46.27
60820;BME280;46641;48.904;9.126;2022-09-09T01:47:53;98195.50;;;23.23;46.43
60820;BME280;46641;48.904;9.126;2022-09-09T01:52:46;98197.94;;;23.25;46.40
60820;BME280;46641;48.904;9.126;2022-09-09T02:07:48;98186.22;;;23.26;46.24
60820;BME280;46641;48.904;9.126;2022-09-09T02:12:46;98186.22;;;23.26;46.37
60820;BME280;46641;48.904;9.126;2022-09-09T02:17:38;98187.50;;;23.23;46.33
60820;BME280;46641;48.904;9.126;2022-09-09T02:22:31;98195.50;;;23.23;46.45
60820;BME280;46641;48.904;9.126;2022-09-09T02:27:24;98193.09;;;23.22;46.64
60820;BME280;46641;48.904;9.126;2022-09-09T02:32:17;98196.56;;;23.22;46.47
60820;BME280;46641;48.904;9.126;2022-09-09T02:37:10;98184.25;;;23.21;46.25
60820;BME280;46641;48.904;9.126;2022-09-09T02:42:04;98194.34;;;23.19;46.26
60820;BME280;46641;48.904;9.126;2022-09-09T02:47:16;98186.00;;;23.16;46.29
60820;BME280;46641;48.904;9.126;2022-09-09T02:52:15;98183.59;;;23.14;46.54
60820;BME280;46641;48.904;9.126;2022-09-09T02:57:24;98171.53;;;23.12;46.15
60820;BME280;46641;48.904;9.126;2022-09-09T03:02:16;98160.03;;;23.11;46.21
60820;BME280;46641;48.904;9.126;2022-09-09T03:07:06;98167.22;;;23.10;46.65
60820;BME280;46641;48.904;9.126;2022-09-09T03:11:56;98152.03;;;23.11;46.59
60820;BME280;46641;48.904;9.126;2022-09-09T03:16:47;98148.78;;;23.09;46.44
60820;BME280;46641;48.904;9.126;2022-09-09T03:21:38;98158.31;;;23.05;46.35
60820;BME280;46641;48.904;9.126;2022-09-09T03:26:29;98162.00;;;23.04;46.57
60820;BME280;46641;48.904;9.126;2022-09-09T03:31:20;98162.47;;;23.01;46.58
60820;BME280;46641;48.904;9.126;2022-09-09T03:36:12;98173.41;;;22.99;46.25
60820;BME280;46641;48.904;9.126;2022-09-09T03:41:02;98172.81;;;22.97;46.37
60820;BME280;46641;48.904;9.126;2022-09-09T03:45:56;98180.03;;;22.97;46.58
60820;BME280;46641;48.904;9.126;2022-09-09T03:50:48;98185.59;;;22.95;46.64
60820;BME280;46641;48.904;9.126;2022-09-09T03:55:39;98192.66;;;22.90;46.55
60820;BME280;46641;48.904;9.126;2022-09-09T04:00:33;98184.66;;;22.90;46.53
60820;BME280;46641;48.904;9.126;2022-09-09T04:05:23;98177.13;;;22.86;46.29
60820;BME280;46641;48.904;9.126;2022-09-09T04:10:14;98176.31;;;22.86;46.81
60820;BME280;46641;48.904;9.126;2022-09-09T04:15:06;98182.09;;;22.83;46.69
60820;BME280;46641;48.904;9.126;2022-09-09T04:19:56;98187.44;;;22.83;46.84
60820;BME280;46641;48.904;9.126;2022-09-09T04:24:47;98193.03;;;22.81;46.69
60820;BME280;46641;48.904;9.126;2022-09-09T04:29:37;98187.09;;;22.79;46.75
60820;BME280;46641;48.904;9.126;2022-09-09T04:34:28;98187.91;;;22.80;46.84
60820;BME280;46641;48.904;9.126;2022-09-09T04:39:19;98199.06;;;22.77;46.69
60820;BME280;46641;48.904;9.126;2022-09-09T04:44:10;98199.06;;;22.77;46.86
60820;BME280;46641;48.904;9.126;2022-09-09T04:49:00;98200.91;;;22.76;46.69
60820;BME280;46641;48.904;9.126;2022-09-09T04:53:50;98197.09;;;22.72;46.85
60820;BME280;46641;48.904;9.126;2022-09-09T04:58:41;98208.22;;;22.69;46.94
60820;BME280;46641;48.904;9.126;2022-09-09T05:03:33;98209.84;;;22.70;46.96
60820;BME280;46641;48.904;9.126;2022-09-09T05:08:23;98212.75;;;22.69;46.99
60820;BME280;46641;48.904;9.126;2022-09-09T05:13:13;98218.91;;;22.69;46.71
60820;BME280;46641;48.904;9.126;2022-09-09T05:18:04;98220.97;;;22.67;46.81
60820;BME280;46641;48.904;9.126;2022-09-09T05:22:55;98221.44;;;22.64;46.88
60820;BME280;46641;48.904;9.126;2022-09-09T05:27:46;98219.84;;;22.63;47.00
60820;BME280;46641;48.904;9.126;2022-09-09T05:32:36;98225.16;;;22.63;47.04
60820;BME280;46641;48.904;9.126;2022-09-09T05:37:27;98229.69;;;22.62;47.06
60820;BME280;46641;48.904;9.126;2022-09-09T05:42:17;98227.84;;;22.63;46.99
60820;BME280;46641;48.904;9.126;2022-09-09T05:47:07;98240.38;;;22.62;46.81
60820;BME280;46641;48.904;9.126;2022-09-09T05:51:58;98238.72;;;22.61;47.13
60820;BME280;46641;48.904;9.126;2022-09-09T05:56:48;98236.31;;;22.60;47.17
60820;BME280;46641;48.904;9.126;2022-09-09T06:01:40;98242.44;;;22.60;46.85
60820;BME280;46641;48.904;9.126;2022-09-09T06:06:32;98245.34;;;22.59;47.15
60820;BME280;46641;48.904;9.126;2022-09-09T06:11:28;98245.56;;;22.57;46.98
60820;BME280;46641;48.904;9.126;2022-09-09T06:16:23;98242.09;;;22.57;47.17
60820;BME280;46641;48.904;9.126;2022-09-09T06:21:26;98240.22;;;22.57;47.03
60820;BME280;46641;48.904;9.126;2022-09-09T06:26:20;98245.34;;;22.59;47.05
60820;BME280;46641;48.904;9.126;2022-09-09T06:31:12;98245.81;;;22.56;47.42
60820;BME280;46641;48.904;9.126;2022-09-09T06:36:03;98252.75;;;22.57;47.30
60820;BME280;46641;48.904;9.126;2022-09-09T06:40:56;98253.34;;;22.59;47.44
60820;BME280;46641;48.904;9.126;2022-09-09T06:50:44;98259.72;;;22.58;47.54
60820;BME280;46641;48.904;9.126;2022-09-09T06:55:34;98263.44;;;22.57;47.43
60820;BME280;46641;48.904;9.126;2022-09-09T07:00:25;98264.84;;;22.59;47.17
60820;BME280;46641;48.904;9.126;2022-09-09T07:05:15;98257.63;;;22.60;47.08
60820;BME280;46641;48.904;9.126;2022-09-09T07:10:06;98258.78;;;22.64;47.40
60820;BME280;46641;48.904;9.126;2022-09-09T07:14:57;98255.06;;;22.65;47.07
60820;BME280;46641;48.904;9.126;2022-09-09T07:19:48;98261.00;;;22.67;47.23
60820;BME280;46641;48.904;9.126;2022-09-09T07:24:38;98258.34;;;22.67;47.04
60820;BME280;46641;48.904;9.126;2022-09-09T07:29:28;98259.47;;;22.71;47.16
60820;BME280;46641;48.904;9.126;2022-09-09T07:34:19;98261.13;;;22.72;47.36
60820;BME280;46641;48.904;9.126;2022-09-09T07:39:11;98260.06;;;22.73;47.52
60820;BME280;46641;48.904;9.126;2022-09-09T07:44:09;98268.22;;;22.78;47.33
60820;BME280;46641;48.904;9.126;2022-09-09T07:49:01;98257.28;;;22.80;47.11
60820;BME280;46641;48.904;9.126;2022-09-09T07:53:54;98258.91;;;22.81;47.28
60820;BME280;46641;48.904;9.126;2022-09-09T07:58:46;98256.03;;;22.82;47.41
60820;BME280;46641;48.904;9.126;2022-09-09T08:03:37;98266.69;;;22.82;47.47
60820;BME280;46641;48.904;9.126;2022-09-09T08:08:28;98256.81;;;22.83;47.18
60820;BME280;46641;48.904;9.126;2022-09-09T08:13:18;98260.22;;;22.78;47.55
60820;BME280;46641;48.904;9.126;2022-09-09T08:18:09;98264.34;;;22.74;47.76
60820;BME280;46641;48.904;9.126;2022-09-09T08:22:59;98265.16;;;22.75;47.76
60820;BME280;46641;48.904;9.126;2022-09-09T08:27:49;98290.13;;;22.80;47.20
60820;BME280;46641;48.904;9.126;2022-09-09T08:32:40;98290.13;;;22.80;48.04
60820;BME280;46641;48.904;9.126;2022-09-09T08:37:32;98289.19;;;22.86;47.78
60820;BME280;46641;48.904;9.126;2022-09-09T08:42:40;98268.19;;;22.90;47.49
60820;BME280;46641;48.904;9.126;2022-09-09T08:58:13;98268.72;;;22.22;49.51
60820;BME280;46641;48.904;9.126;2022-09-09T09:08:31;98270.91;;;23.02;47.72
60820;BME280;46641;48.904;9.126;2022-09-09T09:13:57;98276.56;;;23.17;47.42
60820;BME280;46641;48.904;9.126;2022-09-09T09:18:56;98275.31;;;23.08;45.66
60820;BME280;46641;48.904;9.126;2022-09-09T09:23:58;98271.91;;;23.24;46.00
60820;BME280;46641;48.904;9.126;2022-09-09T09:28:48;98268.38;;;23.36;46.22
60820;BME280;46641;48.904;9.126;2022-09-09T09:33:51;98254.69;;;23.44;46.02
60820;BME280;46641;48.904;9.126;2022-09-09T09:38:59;98257.22;;;23.50;45.91
60820;BME280;46641;48.904;9.126;2022-09-09T09:43:59;98247.53;;;23.61;45.68
60820;BME280;46641;48.904;9.126;2022-09-09T09:49:01;98243.69;;;23.69;46.27
60820;BME280;46641;48.904;9.126;2022-09-09T09:59:59;98237.72;;;23.78;45.38
60820;BME280;46641;48.904;9.126;2022-09-09T10:04:24;98229.66;;;23.90;45.64
60820;BME280;46641;48.904;9.126;2022-09-09T10:09:28;98224.81;;;24.04;45.36
60820;BME280;46641;48.904;9.126;2022-09-09T10:15:00;98223.47;;;24.18;45.05
60820;BME280;46641;48.904;9.126;2022-09-09T10:20:12;98213.47;;;24.31;45.35
60820;BME280;46641;48.904;9.126;2022-09-09T10:25:26;98235.47;;;24.49;44.69
60820;BME280;46641;48.904;9.126;2022-09-09T10:35:38;98228.72;;;24.81;45.05
60820;BME280;46641;48.904;9.126;2022-09-09T10:40:34;98225.72;;;24.99;45.56
60820;BME280;46641;48.904;9.126;2022-09-09T10:45:35;98231.09;;;25.16;45.02
60820;BME280;46641;48.904;9.126;2022-09-09T10:50:42;98230.44;;;25.31;44.61
60820;BME280;46641;48.904;9.126;2022-09-09T10:55:47;98227.84;;;25.36;44.49
60820;BME280;46641;48.904;9.126;2022-09-09T11:00:44;98245.78;;;25.35;45.09
60820;BME280;46641;48.904;9.126;2022-09-09T11:05:45;98249.97;;;25.26;45.29
60820;BME280;46641;48.904;9.126;2022-09-09T11:10:49;98247.16;;;25.16;46.01
60820;BME280;46641;48.904;9.126;2022-09-09T11:15:49;98260.56;;;25.16;45.85
60820;BME280;46641;48.904;9.126;2022-09-09T11:20:42;98261.59;;;25.15;44.61
60820;BME280;46641;48.904;9.126;2022-09-09T11:25:40;98281.22;;;25.04;45.68
60820;BME280;46641;48.904;9.126;2022-09-09T11:30:59;98285.28;;;25.06;45.71
60820;BME280;46641;48.904;9.126;2022-09-09T11:41:34;98272.63;;;25.02;44.85
60820;BME280;46641;48.904;9.126;2022-09-09T11:46:36;98267.63;;;24.88;45.40
60820;BME280;46641;48.904;9.126;2022-09-09T11:51:29;98264.72;;;24.90;46.13
60820;BME280;46641;48.904;9.126;2022-09-09T11:56:44;98259.91;;;24.92;45.72
60820;BME280;46641;48.904;9.126;2022-09-09T12:01:43;98243.16;;;25.02;45.57
60820;BME280;46641;48.904;9.126;2022-09-09T12:06:46;98232.22;;;25.03;45.55
60820;BME280;46641;48.904;9.126;2022-09-09T12:11:38;98221.06;;;24.89;46.14
60820;BME280;46641;48.904;9.126;2022-09-09T12:16:34;98215.94;;;24.88;44.46
60820;BME280;46641;48.904;9.126;2022-09-09T12:21:36;98218.66;;;24.20;46.11
60820;BME280;46641;48.904;9.126;2022-09-09T12:27:07;98225.63;;;24.72;45.21
60820;BME280;46641;48.904;9.126;2022-09-09T12:32:10;98215.00;;;24.99;44.82
60820;BME280;46641;48.904;9.126;2022-09-09T12:42:27;98212.03;;;25.12;42.38
60820;BME280;46641;48.904;9.126;2022-09-09T12:47:20;98217.53;;;25.06;43.40
60820;BME280;46641;48.904;9.126;2022-09-09T12:52:22;98212.16;;;25.23;43.63
60820;BME280;46641;48.904;9.126;2022-09-09T12:57:14;98204.41;;;25.26;44.83
60820;BME280;46641;48.904;9.126;2022-09-09T13:02:22;98194.25;;;25.28;44.75
60820;BME280;46641;48.904;9.126;2022-09-09T13:07:13;98200.16;;;25.30;45.56
60820;BME280;46641;48.904;9.126;2022-09-09T13:12:14;98202.13;;;25.35;45.34
60820;BME280;46641;48.904;9.126;2022-09-09T13:17:06;98193.00;;;25.36;45.86
60820;BME280;46641;48.904;9.126;2022-09-09T13:21:57;98187.66;;;25.36;46.01
60820;BME280;46641;48.904;9.126;2022-09-09T13:26:55;98189.88;;;25.44;44.91
60820;BME280;46641;48.904;9.126;2022-09-09T13:31:46;98188.47;;;24.76;44.68
60820;BME280;46641;48.904;9.126;2022-09-09T13:36:37;98178.16;;;25.28;43.64
60820;BME280;46641;48.904;9.126;2022-09-09T13:41:33;98180.38;;;25.58;43.32
60820;BME280;46641;48.904;9.126;2022-09-09T13:46:32;98174.00;;;24.93;42.97
60820;BME280;46641;48.904;9.126;2022-09-09T13:51:33;98168.59;;;25.32;41.54
60820;BME280;46641;48.904;9.126;2022-09-09T13:56:24;98163.34;;;24.99;42.89
60820;BME280;46641;48.904;9.126;2022-09-09T14:01:14;98160.47;;;25.49;43.00
60820;BME280;46641;48.904;9.126;2022-09-09T14:06:04;98166.63;;;25.50;40.65
60820;BME280;46641;48.904;9.126;2022-09-09T14:10:55;98162.59;;;25.03;42.78
60820;BME280;46641;48.904;9.126;2022-09-09T14:15:46;98169.59;;;25.53;42.45
60820;BME280;46641;48.904;9.126;2022-09-09T14:20:37;98167.16;;;25.79;41.88
60820;BME280;46641;48.904;9.126;2022-09-09T14:25:27;98168.38;;;25.93;41.98
60820;BME280;46641;48.904;9.126;2022-09-09T14:30:17;98157.16;;;25.96;41.69
60820;BME280;46641;48.904;9.126;2022-09-09T14:35:08;98146.47;;;26.01;41.36
60820;BME280;46641;48.904;9.126;2022-09-09T14:39:58;98156.94;;;26.03;40.79
60820;BME280;46641;48.904;9.126;2022-09-09T14:44:49;98157.19;;;26.01;40.93
60820;BME280;46641;48.904;9.126;2022-09-09T14:49:39;98160.69;;;26.02;41.03
60820;BME280;46641;48.904;9.126;2022-09-09T14:54:29;98166.31;;;26.00;38.22
60820;BME280;46641;48.904;9.126;2022-09-09T14:59:20;98172.09;;;24.72;38.74
60820;BME280;46641;48.904;9.126;2022-09-09T15:04:12;98173.97;;;24.71;41.07
60820;BME280;46641;48.904;9.126;2022-09-09T15:09:02;98175.56;;;25.33;39.65
60820;BME280;46641;48.904;9.126;2022-09-09T15:13:53;98184.16;;;25.62;36.96
60820;BME280;46641;48.904;9.126;2022-09-09T15:18:45;98175.97;;;24.81;40.35
60820;BME280;46641;48.904;9.126;2022-09-09T15:23:36;98180.72;;;25.40;39.17
60820;BME280;46641;48.904;9.126;2022-09-09T15:28:28;98181.59;;;25.46;36.29
60820;BME280;46641;48.904;9.126;2022-09-09T15:33:20;98175.78;;;24.88;38.60
60820;BME280;46641;48.904;9.126;2022-09-09T15:38:10;98177.81;;;25.41;38.42
60820;BME280;46641;48.904;9.126;2022-09-09T15:43:03;98172.44;;;25.69;37.99
60820;BME280;46641;48.904;9.126;2022-09-09T15:47:55;98180.66;;;25.84;38.33
60820;BME280;46641;48.904;9.126;2022-09-09T15:52:45;98189.31;;;25.91;38.53
60820;BME280;46641;48.904;9.126;2022-09-09T15:57:36;98185.53;;;25.92;38.64
60820;BME280;46641;48.904;9.126;2022-09-09T16:02:26;98193.34;;;25.94;39.11
60820;BME280;46641;48.904;9.126;2022-09-09T16:07:16;98202.72;;;25.91;39.40
60820;BME280;46641;48.904;9.126;2022-09-09T16:12:07;98203.22;;;25.88;39.56
60820;BME280;46641;48.904;9.126;2022-09-09T16:16:59;98234.19;;;25.79;39.82
60820;BME280;46641;48.904;9.126;2022-09-09T16:21:50;98269.88;;;25.57;38.75
60820;BME280;46641;48.904;9.126;2022-09-09T16:26:43;98263.28;;;25.43;40.03
60820;BME280;46641;48.904;9.126;2022-09-09T16:31:35;98265.88;;;25.38;40.89
60820;BME280;46641;48.904;9.126;2022-09-09T16:36:28;98275.81;;;25.37;40.78
60820;BME280;46641;48.904;9.126;2022-09-09T16:41:20;98268.03;;;25.36;41.11
60820;BME280;46641;48.904;9.126;2022-09-09T16:46:16;98273.69;;;25.39;41.06
60820;BME280;46641;48.904;9.126;2022-09-09T16:51:13;98280.44;;;25.42;41.26
60820;BME280;46641;48.904;9.126;2022-09-09T16:56:06;98292.25;;;25.46;41.58
60820;BME280;46641;48.904;9.126;2022-09-09T17:01:00;98268.47;;;25.50;41.67
60820;BME280;46641;48.904;9.126;2022-09-09T17:05:52;98257.72;;;25.50;41.74
60820;BME280;46641;48.904;9.126;2022-09-09T17:10:42;98256.13;;;25.49;41.59
60820;BME280;46641;48.904;9.126;2022-09-09T17:15:33;98252.63;;;25.48;42.08
60820;BME280;46641;48.904;9.126;2022-09-09T17:20:24;98259.53;;;25.44;42.34
60820;BME280;46641;48.904;9.126;2022-09-09T17:25:14;98257.84;;;25.38;42.15
60820;BME280;46641;48.904;9.126;2022-09-09T17:30:07;98261.88;;;25.35;42.37
60820;BME280;46641;48.904;9.126;2022-09-09T17:34:57;98253.53;;;25.32;42.69
60820;BME280;46641;48.904;9.126;2022-09-09T17:39:48;98243.22;;;25.24;42.51
60820;BME280;46641;48.904;9.126;2022-09-09T17:44:38;98251.72;;;25.15;42.68
60820;BME280;46641;48.904;9.126;2022-09-09T17:49:30;98259.06;;;25.08;42.96
60820;BME280;46641;48.904;9.126;2022-09-09T17:54:52;98259.50;;;25.00;42.86
60820;BME280;46641;48.904;9.126;2022-09-09T17:59:46;98263.72;;;24.96;43.15
60820;BME280;46641;48.904;9.126;2022-09-09T18:04:37;98261.56;;;24.93;43.37
60820;BME280;46641;48.904;9.126;2022-09-09T18:09:27;98276.22;;;24.90;43.65
60820;BME280;46641;48.904;9.126;2022-09-09T18:14:20;98270.56;;;24.87;43.59
60820;BME280;46641;48.904;9.126;2022-09-09T18:19:12;98280.13;;;24.83;43.37
60820;BME280;46641;48.904;9.126;2022-09-09T18:24:05;98289.69;;;24.79;43.83
60820;BME280;46641;48.904;9.126;2022-09-09T18:28:57;98298.47;;;24.74;43.66
60820;BME280;46641;48.904;9.126;2022-09-09T18:33:49;98311.28;;;24.72;43.77
60820;BME280;46641;48.904;9.126;2022-09-09T18:38:40;98312.03;;;24.67;44.08
60820;BME280;46641;48.904;9.126;2022-09-09T18:43:30;98325.78;;;24.59;43.90
60820;BME280;46641;48.904;9.126;2022-09-09T18:48:21;98322.31;;;24.59;44.29
60820;BME280;46641;48.904;9.126;2022-09-09T18:53:11;98325.47;;;24.56;43.93
60820;BME280;46641;48.904;9.126;2022-09-09T18:58:04;98332.69;;;24.55;44.10
60820;BME280;46641;48.904;9.126;2022-09-09T19:02:55;98326.53;;;24.55;44.31
60820;BME280;46641;48.904;9.126;2022-09-09T19:07:45;98330.19;;;24.48;44.42
60820;BME280;46641;48.904;9.126;2022-09-09T19:12:35;98325.88;;;24.47;44.37
60820;BME280;46641;48.904;9.126;2022-09-09T19:17:25;98314.88;;;24.44;44.24
60820;BME280;46641;48.904;9.126;2022-09-09T19:22:17;98330.53;;;24.40;44.52
60820;BME280;46641;48.904;9.126;2022-09-09T19:27:08;98321.63;;;24.35;44.28
60820;BME280;46641;48.904;9.126;2022-09-09T19:32:00;98329.88;;;24.33;44.68
60820;BME280;46641;48.904;9.126;2022-09-09T19:36:51;98327.44;;;24.32;44.60
60820;BME280;46641;48.904;9.126;2022-09-09T19:41:41;98326.41;;;24.33;44.71
60820;BME280;46641;48.904;9.126;2022-09-09T19:46:34;98330.34;;;24.30;44.55
60820;BME280;46641;48.904;9.126;2022-09-09T19:51:27;98346.06;;;24.26;44.56
60820;BME280;46641;48.904;9.126;2022-09-09T19:56:19;98342.84;;;24.24;44.74
60820;BME280;46641;48.904;9.126;2022-09-09T20:01:14;98342.25;;;24.22;44.84
60820;BME280;46641;48.904;9.126;2022-09-09T20:06:07;98355.31;;;24.19;45.03
60820;BME280;46641;48.904;9.126;2022-09-09T20:10:57;98365.44;;;24.17;44.94
60820;BME280;46641;48.904;9.126;2022-09-09T20:15:59;98378.47;;;24.13;45.02
60820;BME280;46641;48.904;9.126;2022-09-09T20:20:49;98378.13;;;24.10;45.24
60820;BME280;46641;48.904;9.126;2022-09-09T20:25:40;98378.59;;;24.07;44.91
60820;BME280;46641;48.904;9.126;2022-09-09T20:30:30;98382.09;;;24.07;44.99
60820;BME280;46641;48.904;9.126;2022-09-09T20:35:21;98383.63;;;24.03;45.14
60820;BME280;46641;48.904;9.126;2022-09-09T20:40:12;98386.50;;;24.01;44.88
60820;BME280;46641;48.904;9.126;2022-09-09T20:45:02;98385.16;;;23.99;45.14
60820;BME280;46641;48.904;9.126;2022-09-09T20:49:52;98384.81;;;23.95;45.16
60820;BME280;46641;48.904;9.126;2022-09-09T20:54:43;98393.31;;;23.92;45.59
60820;BME280;46641;48.904;9.126;2022-09-09T20:59:33;98390.75;;;23.86;45.96
60820;BME280;46641;48.904;9.126;2022-09-09T21:04:24;98393.44;;;23.86;45.26
60820;BME280;46641;48.904;9.126;2022-09-09T21:09:15;98391.47;;;23.81;45.27
60820;BME280;46641;48.904;9.126;2022-09-09T21:14:06;98387.38;;;23.78;45.45
60820;BME280;46641;48.904;9.126;2022-09-09T21:18:57;98382.50;;;23.75;45.83
60820;BME280;46641;48.904;9.126;2022-09-09T21:23:48;98382.19;;;23.72;45.73
60820;BME280;46641;48.904;9.126;2022-09-09T21:28:39;98385.09;;;23.70;45.73
60820;BME280;46641;48.904;9.126;2022-09-09T21:33:31;98390.28;;;23.65;45.69
60820;BME280;46641;48.904;9.126;2022-09-09T21:38:23;98380.06;;;23.62;46.00
60820;BME280;46641;48.904;9.126;2022-09-09T21:43:13;98384.84;;;23.60;45.95
60820;BME280;46641;48.904;9.126;2022-09-09T21:48:05;98377.06;;;23.59;46.08
60820;BME280;46641;48.904;9.126;2022-09-09T21:52:56;98386.34;;;23.56;45.74
60820;BME280;46641;48.904;9.126;2022-09-09T21:57:46;98389.28;;;23.54;45.97
60820;BME280;46641;48.904;9.126;2022-09-09T22:02:37;98387.88;;;23.52;46.02
60820;BME280;46641;48.904;9.126;2022-09-09T22:07:27;98392.06;;;23.48;46.26
60820;BME280;46641;48.904;9.126;2022-09-09T22:12:17;98389.06;;;23.44;46.00
60820;BME280;46641;48.904;9.126;2022-09-09T22:17:08;98387.66;;;23.42;46.51
60820;BME280;46641;48.904;9.126;2022-09-09T22:21:58;98376.63;;;23.38;46.08
60820;BME280;46641;48.904;9.126;2022-09-09T22:26:48;98369.31;;;23.33;46.56
60820;BME280;46641;48.904;9.126;2022-09-09T22:31:44;98376.75;;;23.31;46.53
60820;BME280;46641;48.904;9.126;2022-09-09T22:36:34;98393.47;;;23.27;46.44
60820;BME280;46641;48.904;9.126;2022-09-09T22:41:25;98405.19;;;23.26;46.59
60820;BME280;46641;48.904;9.126;2022-09-09T22:46:16;98438.50;;;23.23;46.46
60820;BME280;46641;48.904;9.126;2022-09-09T22:51:10;98449.88;;;23.19;46.42
60820;BME280;46641;48.904;9.126;2022-09-09T22:56:04;98447.78;;;23.09;46.63
60820;BME280;46641;48.904;9.126;2022-09-09T23:00:55;98441.28;;;23.05;46.81
60820;BME280;46641;48.904;9.126;2022-09-09T23:05:55;98446.28;;;23.01;47.34
60820;BME280;46641;48.904;9.126;2022-09-09T23:10:46;98439.28;;;23.00;47.03
60820;BME280;46641;48.904;9.126;2022-09-09T23:15:37;98428.97;;;23.04;47.35
60820;BME280;46641;48.904;9.126;2022-09-09T23:20:28;98425.72;;;23.02;47.16
60820;BME280;46641;48.904;9.126;2022-09-09T23:25:18;98417.94;;;23.00;47.30
60820;BME280;46641;48.904;9.126;2022-09-09T23:30:09;98416.56;;;22.98;47.13
60820;BME280;46641;48.904;9.126;2022-09-09T23:35:00;98409.00;;;22.95;47.16
60820;BME280;46641;48.904;9.126;2022-09-09T23:39:50;98406.91;;;22.97;47.15
60820;BME280;46641;48.904;9.126;2022-09-09T23:44:40;98415.16;;;22.95;47.41
60820;BME280;46641;48.904;9.126;2022-09-09T23:49:31;98407.94;;;22.96;47.18
60820;BME280;46641;48.904;9.126;2022-09-09T23:54:22;98404.56;;;22.89;47.29
60820;BME280;46641;48.904;9.126;2022-09-09T23:59:14;98397.34;;;22.89;47.69
